Time;durP1;ratioP1;P1;durP2;ratioP2;P2;SDS_P1;SDS_P2;PMS_P1;PMS_P2;Temp;Humidity;BMP_temperature;BMP_pressure;BME280_temperature;BME280_humidity;BME280_pressure;Samples;Min_cycle;Max_cycle;Signal;HPM_P1;HPM_P2
2022/12/23 00:00:41;;;;;;;22.33;8.50;;;;;;;14.06;66.28;100228.88;4938402;28;114877;-68
2022/12/23 00:03:09;;;;;;;18.85;8.65;;;;;;;14.06;66.15;100226.22;4939156;28;123517;-68
2022/12/23 00:05:38;;;;;;;21.27;8.02;;;;;;;14.06;65.94;100231.56;4937677;28;124071;-68
2022/12/23 00:08:06;;;;;;;18.67;8.68;;;;;;;14.06;66.32;100236.88;4938366;28;113964;-68
2022/12/23 00:10:36;;;;;;;25.15;8.80;;;;;;;14.05;66.29;100235.16;4938370;28;114330;-68
2022/12/23 00:15:49;;;;;;;;;;;;;;;14.02;66.22;100240.72;4931614;28;123710;-68
2022/12/23 00:18:16;;;;;;;16.58;8.77;;;;;;;14.04;66.18;100235.28;4933155;28;115481;-68
2022/12/23 00:20:43;;;;;;;24.10;9.57;;;;;;;14.03;66.36;100237.06;4934227;28;115453;-68
2022/12/23 00:23:10;;;;;;;17.05;9.38;;;;;;;14.01;66.40;100249.66;4932639;28;124723;-68
2022/12/23 00:25:40;;;;;;;17.77;8.98;;;;;;;14.01;66.40;100254.97;4932067;28;123735;-68
2022/12/23 00:28:12;;;;;;;17.17;8.95;;;;;;;14.01;66.41;100265.63;4920546;28;115155;-68
2022/12/23 00:30:44;;;;;;;17.80;9.48;;;;;;;14.01;66.48;100254.97;4940949;28;115470;-68
2022/12/23 00:33:13;;;;;;;20.83;8.88;;;;;;;14.01;66.61;100254.97;4931089;28;124607;-68
2022/12/23 00:35:44;;;;;;;19.58;9.60;;;;;;;14.01;66.32;100261.19;4934814;28;123680;-68
2022/12/23 00:38:12;;;;;;;14.50;8.75;;;;;;;14.01;66.54;100254.97;4931825;28;114018;-68
2022/12/23 00:43:25;;;;;;;19.50;9.25;;;;;;;13.98;66.49;100265.84;4928487;28;124439;-68
2022/12/23 00:45:53;;;;;;;22.02;9.95;;;;;;;13.98;66.50;100261.38;4937552;28;123629;-68
2022/12/23 00:51:06;;;;;;;19.38;10.48;;;;;;;14.00;66.75;100279.91;4941616;28;116169;-68
2022/12/23 00:53:33;;;;;;;18.27;10.95;;;;;;;14.01;66.57;100273.63;4933414;28;123903;-69
2022/12/23 00:56:00;;;;;;;22.00;11.27;;;;;;;14.02;66.54;100278.00;4941769;28;124652;-68
2022/12/23 00:58:27;;;;;;;23.38;11.80;;;;;;;14.04;66.76;100280.56;4941152;28;114905;-68
2022/12/23 01:06:26;;;;;;;;;;;;;;;14.01;66.66;100286.94;4930800;28;125694;-68
2022/12/23 01:08:53;;;;;;;18.33;10.82;;;;;;;14.01;66.48;100293.13;4931871;28;115367;-69
2022/12/23 01:11:20;;;;;;;16.70;11.25;;;;;;;14.02;66.41;100293.97;4930261;28;115249;-68
2022/12/23 01:13:47;;;;;;;19.95;12.00;;;;;;;14.02;66.67;100296.63;4928647;28;124545;-68
2022/12/23 01:16:14;;;;;;;18.23;11.80;;;;;;;14.03;66.69;100300.97;4949186;28;124923;-68
2022/12/23 01:18:44;;;;;;;21.35;11.82;;;;;;;14.03;66.72;100306.31;4943903;28;114327;-69
2022/12/23 01:21:11;;;;;;;23.80;12.70;;;;;;;14.03;66.68;100300.97;4941451;28;114870;-68
2022/12/23 01:23:38;;;;;;;18.02;12.77;;;;;;;14.03;66.77;100295.66;4943083;28;124048;-68
2022/12/23 01:26:07;;;;;;;17.92;11.50;;;;;;;14.02;66.15;100301.97;4933254;28;124031;-68
2022/12/23 01:28:34;;;;;;;17.10;11.02;;;;;;;14.00;66.74;100295.88;4930381;28;113875;-68
2022/12/23 01:31:04;;;;;;;19.52;11.10;;;;;;;14.00;66.71;100306.53;4945742;28;114943;-68
2022/12/23 01:33:32;;;;;;;18.27;11.52;;;;;;;13.99;66.86;100311.00;4929784;28;124669;-68
2022/12/23 01:36:04;;;;;;;19.70;11.82;;;;;;;14.01;66.79;100310.88;4936030;28;123804;-68
2022/12/23 01:38:32;;;;;;;18.55;11.50;;;;;;;14.00;66.76;100302.06;4935771;28;114955;-68
2022/12/23 01:40:59;;;;;;;18.85;11.55;;;;;;;14.02;66.73;100304.63;4937072;28;114427;-69
2022/12/23 01:43:47;;;;;;;18.48;11.30;;;;;;;14.02;66.84;100304.63;4935382;28;125853;-68
2022/12/23 01:46:14;;;;;;;16.48;10.80;;;;;;;14.02;66.76;100315.28;4938886;28;124814;-68
2022/12/23 01:48:49;;;;;;;16.30;10.88;;;;;;;14.00;67.06;100312.72;4940315;28;114168;-68
2022/12/23 01:51:24;;;;;;;17.83;10.77;;;;;;;14.00;66.84;100317.19;4941127;28;114148;-69
2022/12/23 01:53:56;;;;;;;18.45;10.93;;;;;;;14.00;66.96;100314.53;4939997;28;124832;-68
2022/12/23 01:56:31;;;;;;;16.33;11.13;;;;;;;14.00;66.92;100320.69;4937153;28;124164;-68
2022/12/23 01:59:08;;;;;;;17.75;10.73;;;;;;;14.00;66.96;100327.84;4939164;28;115896;-68
2022/12/23 02:04:23;;;;;;;18.00;10.30;;;;;;;14.00;66.84;100338.50;4940208;28;124096;-69
2022/12/23 02:09:38;;;;;;;17.10;10.07;;;;;;;14.00;66.85;100344.66;4940828;28;114876;-68
2022/12/23 02:12:33;;;;;;;17.45;10.68;;;;;;;14.00;66.90;100349.13;4940746;28;114301;-68
2022/12/23 02:18:23;;;;;;;18.10;10.77;;;;;;;13.98;66.80;100346.56;4953385;28;122954;-69
2022/12/23 02:21:20;;;;;;;20.23;11.18;;;;;;;13.99;66.95;100358.06;4936576;28;114338;-69
2022/12/23 02:24:06;;;;;;;19.30;11.27;;;;;;;13.98;66.78;100361.69;4936066;28;114287;-69
2022/12/23 02:27:01;;;;;;;20.58;10.50;;;;;;;13.97;66.70;100360.81;4950190;28;125058;-69
2022/12/23 02:29:47;;;;;;;22.40;11.20;;;;;;;13.97;67.00;100365.31;4942141;28;124473;-68
2022/12/23 02:32:28;;;;;;;20.42;10.85;;;;;;;13.96;66.92;100363.63;4933693;28;114363;-69
2022/12/23 02:35:09;;;;;;;19.48;10.82;;;;;;;13.96;66.96;100368.94;4939314;28;114592;-68
2022/12/23 02:38:00;;;;;;;22.80;11.23;;;;;;;13.97;66.93;100367.97;4943217;28;124076;-68
2022/12/23 02:41:00;;;;;;;17.50;10.85;;;;;;;13.97;66.95;100370.63;4931481;28;123820;-69
2022/12/23 02:43:42;;;;;;;16.63;10.95;;;;;;;13.97;66.91;100375.97;4931784;28;114209;-69
2022/12/23 02:46:19;;;;;;;18.42;10.48;;;;;;;13.96;66.86;100375.13;4940438;28;114269;-68
2022/12/23 02:48:59;;;;;;;16.48;9.70;;;;;;;13.96;66.90;100380.44;4944687;28;124671;-69
2022/12/23 02:51:33;;;;;;;16.63;10.25;;;;;;;13.97;66.88;100381.28;4932742;28;124584;-69
2022/12/23 02:54:05;;;;;;;15.82;9.73;;;;;;;13.97;66.93;100397.25;4932416;28;114965;-68
2022/12/23 02:56:36;;;;;;;17.92;9.80;;;;;;;13.97;66.95;100394.59;4929019;28;113766;-68
2022/12/23 02:59:15;;;;;;;17.77;9.70;;;;;;;13.96;66.87;100407.06;4936328;28;125065;-68
2022/12/23 03:01:43;;;;;;;17.13;9.85;;;;;;;13.97;66.95;100416.75;4940733;28;123739;-69
2022/12/23 03:04:11;;;;;;;20.00;10.45;;;;;;;13.98;66.96;100420.28;4937653;28;115182;-69
2022/12/23 03:06:44;;;;;;;16.40;10.43;;;;;;;13.97;67.06;100423.88;4933583;28;113742;-68
2022/12/23 03:09:43;;;;;;;15.95;9.85;;;;;;;13.95;66.85;100418.66;4934570;28;124304;-68
2022/12/23 03:12:25;;;;;;;18.45;10.35;;;;;;;13.95;67.00;100420.47;4937828;28;124119;-68
2022/12/23 03:15:10;;;;;;;16.48;10.32;;;;;;;13.95;66.95;100415.16;4946021;28;113916;-69
2022/12/23 03:17:40;;;;;;;18.50;10.10;;;;;;;13.94;67.02;100419.63;4930853;28;114148;-68
2022/12/23 03:20:25;;;;;;;15.68;10.15;;;;;;;13.95;67.29;100410.66;4953618;28;123822;-69
2022/12/23 03:23:02;;;;;;;17.48;9.80;;;;;;;13.97;67.08;100413.22;4929959;28;124700;-68
2022/12/23 03:25:39;;;;;;;17.25;9.43;;;;;;;13.97;67.03;100407.91;4928503;28;114171;-68
2022/12/23 03:28:14;;;;;;;18.08;9.82;;;;;;;13.97;66.86;100407.91;4932631;28;113320;-68
2022/12/23 03:30:46;;;;;;;16.25;9.55;;;;;;;13.97;67.03;100407.91;4930845;28;124532;-69
2022/12/23 03:33:25;;;;;;;18.55;9.88;;;;;;;13.96;67.19;100409.72;4934160;28;124241;-69
2022/12/23 03:36:03;;;;;;;14.77;9.75;;;;;;;13.97;66.95;100405.25;4934128;28;114250;-68
2022/12/23 03:38:34;;;;;;;17.90;10.27;;;;;;;13.96;67.11;100406.22;4933248;28;114820;-68
2022/12/23 03:41:06;;;;;;;14.52;9.50;;;;;;;13.97;67.03;100402.59;4932594;28;123927;-68
2022/12/23 03:43:49;;;;;;;17.63;9.45;;;;;;;13.97;67.14;100407.91;4931750;28;123781;-68
2022/12/23 03:46:44;;;;;;;15.88;9.88;;;;;;;13.97;66.99;100402.59;4933974;28;115285;-69
2022/12/23 03:49:18;;;;;;;15.52;8.80;;;;;;;13.99;67.21;100419.31;4938542;28;114274;-69
2022/12/23 03:52:04;;;;;;;17.55;8.73;;;;;;;13.98;66.99;100406.97;4934530;28;124609;-68
2022/12/23 03:54:41;;;;;;;14.85;8.73;;;;;;;13.98;66.87;100417.63;4936248;28;124941;-68
2022/12/23 03:57:10;;;;;;;13.30;7.90;;;;;;;13.97;67.08;100410.56;4930169;28;114916;-68
2022/12/23 03:59:41;;;;;;;14.32;8.32;;;;;;;13.96;66.78;100423.03;4935020;28;113965;-68
2022/12/23 04:02:34;;;;;;;12.15;8.43;;;;;;;13.96;66.87;100416.88;4941271;28;124822;-68
2022/12/23 04:05:22;;;;;;;11.23;7.72;;;;;;;13.94;67.15;100413.44;4934764;28;124242;-69
2022/12/23 04:08:03;;;;;;;10.43;7.10;;;;;;;13.94;67.04;100413.44;4928179;28;114474;-69
2022/12/23 04:10:30;;;;;;;10.27;7.28;;;;;;;13.94;67.04;100408.13;4934276;28;114378;-69
2022/12/23 04:12:58;;;;;;;11.43;7.25;;;;;;;13.95;67.02;100426.63;4918666;28;124889;-68
2022/12/23 04:15:26;;;;;;;12.57;8.00;;;;;;;13.95;67.04;100431.13;4934157;28;124398;-69
2022/12/23 04:17:55;;;;;;;12.25;7.65;;;;;;;13.95;66.88;100434.63;4934371;28;114414;-68
2022/12/23 04:20:23;;;;;;;13.27;8.05;;;;;;;13.96;66.84;100440.81;4932791;28;114806;-68
2022/12/23 04:22:50;;;;;;;14.73;8.18;;;;;;;13.96;67.00;100446.16;4925655;28;123014;-69
2022/12/23 04:25:17;;;;;;;14.07;8.60;;;;;;;13.95;66.46;100447.09;4930226;28;124560;-69
2022/12/23 04:27:44;;;;;;;15.27;9.43;;;;;;;13.94;66.98;100445.41;4931115;28;113905;-68
2022/12/23 04:30:15;;;;;;;14.05;9.15;;;;;;;13.93;66.99;100446.34;4944889;28;114221;-69
2022/12/23 04:32:42;;;;;;;17.65;9.75;;;;;;;13.92;67.21;100447.28;4933781;28;124936;-69
2022/12/23 04:35:10;;;;;;;15.95;9.38;;;;;;;13.93;66.86;100443.69;4934765;28;122949;-68
2022/12/23 04:37:38;;;;;;;17.35;9.30;;;;;;;13.93;66.88;100449.00;4936019;28;115181;-69
2022/12/23 04:40:05;;;;;;;17.10;9.18;;;;;;;13.90;66.89;100449.19;4934741;28;114908;-68
2022/12/23 04:42:33;;;;;;;20.70;10.20;;;;;;;13.89;66.94;100452.81;4939986;28;123980;-68
2022/12/23 04:45:01;;;;;;;16.10;9.05;;;;;;;13.89;67.02;100447.50;4941991;28;123775;-68
2022/12/23 04:47:28;;;;;;;14.35;8.73;;;;;;;13.88;66.88;100451.09;4931046;28;113597;-68
2022/12/23 04:49:55;;;;;;;17.80;9.27;;;;;;;13.87;66.78;100454.75;4933796;28;113802;-69
2022/12/23 04:52:22;;;;;;;14.25;8.98;;;;;;;13.86;66.77;100463.66;4931135;28;124749;-69
2022/12/23 04:54:49;;;;;;;18.80;10.32;;;;;;;13.85;66.92;100456.66;4940942;28;125691;-69
2022/12/23 04:57:16;;;;;;;20.23;9.73;;;;;;;13.85;66.86;100461.97;4929513;28;115326;-68
2022/12/23 04:59:43;;;;;;;15.18;9.35;;;;;;;13.83;66.96;100454.94;4929933;28;114081;-69
2022/12/23 05:02:11;;;;;;;14.98;8.55;;;;;;;13.83;66.86;100444.28;4936805;28;124847;-68
2022/12/23 05:04:38;;;;;;;15.07;9.10;;;;;;;13.83;66.91;100444.28;4933562;28;124270;-69
2022/12/23 05:07:06;;;;;;;14.88;8.80;;;;;;;13.84;66.82;100429.16;4938626;28;115582;-68
2022/12/23 05:09:33;;;;;;;14.65;8.13;;;;;;;13.83;66.95;100438.94;4929248;28;114989;-69
2022/12/23 05:12:00;;;;;;;14.00;8.55;;;;;;;13.84;66.87;100445.13;4934658;28;124056;-68
2022/12/23 05:14:27;;;;;;;13.32;7.63;;;;;;;13.85;66.90;100443.34;4934632;28;124124;-69
2022/12/23 05:16:54;;;;;;;13.35;7.75;;;;;;;13.83;66.76;100449.59;4936712;28;114408;-68
2022/12/23 05:19:21;;;;;;;14.32;8.38;;;;;;;13.82;66.85;100447.91;4938407;28;114668;-68
2022/12/23 05:21:48;;;;;;;13.63;8.13;;;;;;;13.81;66.80;100440.88;4935136;28;125674;-69
2022/12/23 05:24:15;;;;;;;12.52;7.50;;;;;;;13.80;66.67;100444.47;4933132;28;124553;-68
2022/12/23 05:26:46;;;;;;;14.23;7.80;;;;;;;13.79;66.83;100447.25;4933113;28;115405;-69
2022/12/23 05:29:15;;;;;;;13.55;7.70;;;;;;;13.78;66.81;100457.03;4947232;28;114837;-69
2022/12/23 05:31:42;;;;;;;12.30;7.55;;;;;;;13.78;66.95;100467.66;4938454;28;123950;-68
2022/12/23 05:34:09;;;;;;;13.82;8.32;;;;;;;13.78;66.78;100478.31;4943390;28;124150;-68
2022/12/23 05:36:36;;;;;;;15.25;8.68;;;;;;;13.78;66.68;100478.31;4940178;28;114153;-68
2022/12/23 05:39:03;;;;;;;14.68;8.27;;;;;;;13.80;66.73;100487.06;4947694;28;114464;-69
2022/12/23 05:41:31;;;;;;;15.10;8.40;;;;;;;13.79;66.74;100490.69;4941908;28;123084;-69
2022/12/23 05:43:58;;;;;;;13.68;8.52;;;;;;;13.79;66.70;100485.38;4941934;28;123703;-69
2022/12/23 05:46:25;;;;;;;15.02;8.10;;;;;;;13.81;66.83;100493.25;4922595;28;114712;-68
2022/12/23 05:48:53;;;;;;;14.25;8.02;;;;;;;13.82;66.77;100490.50;4935461;28;113662;-68
2022/12/23 05:51:20;;;;;;;14.52;8.77;;;;;;;13.82;66.85;100490.50;4934989;28;123813;-69
2022/12/23 05:53:47;;;;;;;14.65;9.10;;;;;;;13.82;66.64;100494.94;4933579;28;124881;-69
2022/12/23 05:56:14;;;;;;;15.63;9.25;;;;;;;13.82;66.69;100501.16;4934335;28;113964;-69
2022/12/23 05:58:42;;;;;;;15.52;9.35;;;;;;;13.82;66.70;100498.50;4951454;28;113013;-69
2022/12/23 06:01:09;;;;;;;15.32;8.98;;;;;;;13.83;66.71;100497.50;4939949;28;125303;-69
2022/12/23 06:03:36;;;;;;;16.52;10.00;;;;;;;13.85;66.82;100493.91;4937132;28;123777;-69
2022/12/23 06:06:04;;;;;;;18.38;10.35;;;;;;;13.86;66.67;100479.63;4938816;28;113456;-69
2022/12/23 06:08:31;;;;;;;17.08;9.55;;;;;;;13.86;66.69;100484.97;4939239;28;112923;-69
2022/12/23 06:10:58;;;;;;;14.20;8.65;;;;;;;13.87;66.69;100486.69;4930653;28;124830;-69
2022/12/23 06:13:25;;;;;;;16.77;9.30;;;;;;;13.86;66.66;100474.31;4945665;28;124826;-69
2022/12/23 06:15:53;;;;;;;15.23;8.65;;;;;;;13.86;66.70;100472.50;4950627;28;116375;-69
2022/12/23 06:18:20;;;;;;;14.20;8.35;;;;;;;13.87;66.62;100468.06;4933959;28;114937;-69
2022/12/23 06:20:47;;;;;;;14.93;8.13;;;;;;;13.86;66.66;100464.50;4938690;28;123754;-69
2022/12/23 06:23:14;;;;;;;13.32;8.20;;;;;;;13.87;66.57;100465.38;4956594;28;124436;-69
2022/12/23 06:25:41;;;;;;;16.90;9.68;;;;;;;13.86;66.61;100469.00;4932890;28;114237;-69
2022/12/23 06:28:08;;;;;;;21.45;11.30;;;;;;;13.83;66.79;100460.25;4937779;28;114687;-69
2022/12/23 06:30:35;;;;;;;23.23;12.20;;;;;;;13.83;66.47;100465.56;4934879;28;123076;-69
2022/12/23 06:33:03;;;;;;;25.08;12.82;;;;;;;13.82;66.69;100458.56;4938508;28;124048;-69
2022/12/23 06:35:30;;;;;;;25.88;12.93;;;;;;;13.81;66.78;100462.16;4935500;28;114407;-69
2022/12/23 06:37:57;;;;;;;25.95;13.57;;;;;;;13.82;66.78;100453.25;4939900;28;113113;-69
2022/12/23 06:40:24;;;;;;;25.77;13.50;;;;;;;13.82;66.72;100458.56;4938496;28;125298;-69
2022/12/23 06:42:51;;;;;;;27.88;14.38;;;;;;;13.83;66.77;100462.91;4935204;28;123933;-69
2022/12/23 06:45:18;;;;;;;30.40;14.07;;;;;;;13.81;66.48;100464.81;4956010;28;114216;-69
2022/12/23 06:47:45;;;;;;;31.40;14.32;;;;;;;13.82;66.78;100471.88;4932185;28;114657;-69
2022/12/23 06:50:12;;;;;;;30.42;15.13;;;;;;;13.82;66.75;100479.84;4942420;28;122910;-69
2022/12/23 06:52:39;;;;;;;29.80;14.48;;;;;;;13.81;66.61;100478.13;4949431;28;124414;-69
2022/12/23 06:55:07;;;;;;;34.15;14.90;;;;;;;13.81;66.53;100482.59;4935541;28;114613;-69
2022/12/23 06:57:34;;;;;;;33.47;14.48;;;;;;;13.80;66.53;100479.06;4932888;28;116016;-69
2022/12/23 07:00:03;;;;;;;28.48;14.85;;;;;;;13.81;66.75;100491.44;4957032;28;124397;-69
2022/12/23 07:02:30;;;;;;;29.45;14.07;;;;;;;13.79;66.74;100490.69;4937756;28;123877;-69
2022/12/23 07:04:58;;;;;;;27.95;13.55;;;;;;;13.78;66.44;100499.63;4937269;28;115516;-69
2022/12/23 07:07:25;;;;;;;32.08;15.30;;;;;;;13.77;66.65;100507.72;4943586;28;115076;-69
2022/12/23 07:09:52;;;;;;;28.92;14.02;;;;;;;13.75;66.43;100514.91;4934007;28;124673;-69
2022/12/23 07:12:19;;;;;;;27.77;14.25;;;;;;;13.73;66.60;100532.78;4933174;28;124882;-69
2022/12/23 07:14:46;;;;;;;30.25;14.73;;;;;;;13.72;66.60;100542.59;4950940;28;114918;-69
2022/12/23 07:17:13;;;;;;;27.95;13.68;;;;;;;13.71;66.78;100548.88;4938318;28;113056;-69
2022/12/23 07:19:40;;;;;;;29.75;13.70;;;;;;;13.70;66.63;100555.16;4935434;28;124186;-69
2022/12/23 07:22:09;;;;;;;22.33;12.80;;;;;;;13.69;66.65;100552.56;4937257;28;124072;-69
2022/12/23 07:24:36;;;;;;;30.75;13.70;;;;;;;13.66;66.96;100543.00;4934968;28;114885;-70
2022/12/23 07:27:03;;;;;;;24.50;12.68;;;;;;;13.66;66.81;100556.28;4940656;28;114056;-70
2022/12/23 07:29:30;;;;;;;24.85;12.73;;;;;;;13.65;66.83;100557.22;4945443;28;124588;-70
2022/12/23 07:31:57;;;;;;;22.73;11.60;;;;;;;13.65;66.66;100543.94;4932683;28;123896;-70
2022/12/23 07:34:25;;;;;;;24.33;12.25;;;;;;;13.63;66.85;100537.84;4939422;28;114746;-70
2022/12/23 07:36:52;;;;;;;29.65;12.93;;;;;;;13.63;66.89;100535.19;4940396;28;114597;-70
2022/12/23 07:39:19;;;;;;;23.05;11.23;;;;;;;13.64;66.87;100539.56;4939835;28;124717;-70
2022/12/23 07:41:46;;;;;;;24.35;10.80;;;;;;;13.64;66.92;100531.59;4944138;28;123780;-71
2022/12/23 07:44:14;;;;;;;24.70;10.43;;;;;;;13.66;66.80;100520.84;4942149;28;114570;-70
2022/12/23 07:46:41;;;;;;;25.67;11.18;;;;;;;13.65;66.88;100522.63;4939678;28;114351;-70
2022/12/23 07:49:08;;;;;;;19.98;9.88;;;;;;;13.65;66.72;100519.97;4917461;28;122880;-70
2022/12/23 07:51:35;;;;;;;20.20;9.93;;;;;;;13.65;66.71;100530.63;4937237;28;124653;-71
2022/12/23 07:54:02;;;;;;;24.35;10.30;;;;;;;13.66;66.71;100527.03;4939768;28;115424;-70
2022/12/23 07:56:29;;;;;;;21.00;10.02;;;;;;;13.67;66.90;100523.38;4933715;28;114968;-70
2022/12/23 07:58:57;;;;;;;19.08;9.80;;;;;;;13.66;66.65;100519.03;4927163;28;123912;-70
2022/12/23 08:01:24;;;;;;;19.98;10.68;;;;;;;13.67;66.65;100512.75;4934463;28;124586;-70
2022/12/23 08:03:51;;;;;;;20.80;10.15;;;;;;;13.68;66.62;100522.47;4943492;28;114472;-70
2022/12/23 08:06:18;;;;;;;20.10;10.18;;;;;;;13.67;66.68;100518.06;4937468;28;112860;-70
2022/12/23 08:08:45;;;;;;;18.60;10.88;;;;;;;13.66;66.73;100524.38;4936766;28;125981;-71
2022/12/23 08:11:14;;;;;;;24.33;10.80;;;;;;;13.67;66.72;100533.19;4945464;28;125624;-70
2022/12/23 08:13:43;;;;;;;22.60;11.00;;;;;;;13.67;66.79;100526.06;4940488;28;114262;-71
2022/12/23 08:16:11;;;;;;;20.75;11.05;;;;;;;13.68;66.75;100522.47;4947698;28;113593;-70
2022/12/23 08:18:40;;;;;;;23.50;11.25;;;;;;;13.67;66.80;100520.72;4937137;28;123549;-71
2022/12/23 08:21:16;;;;;;;23.35;11.63;;;;;;;13.71;66.66;100518.72;4931883;28;125011;-70
2022/12/23 08:23:46;;;;;;;27.63;12.35;;;;;;;13.71;66.71;100522.28;4946579;28;114864;-70
2022/12/23 08:26:19;;;;;;;26.38;12.65;;;;;;;13.73;66.76;100528.34;4949202;28;114522;-70
2022/12/23 08:28:48;;;;;;;26.55;12.18;;;;;;;13.74;66.65;100511.41;4957956;28;124595;-71
2022/12/23 08:31:17;;;;;;;26.67;14.13;;;;;;;13.74;66.60;100508.75;4945627;28;123688;-70
2022/12/23 08:33:47;;;;;;;24.67;13.25;;;;;;;13.76;66.57;100520.16;4939777;28;114391;-70
2022/12/23 08:36:17;;;;;;;26.65;13.80;;;;;;;13.77;66.53;100505.91;4934516;28;114968;-70
2022/12/23 08:38:52;;;;;;;28.40;13.65;;;;;;;13.76;66.48;100498.84;4940690;28;124085;-70
2022/12/23 08:41:23;;;;;;;27.48;14.60;;;;;;;13.77;66.70;100484.63;4945109;28;124450;-70
2022/12/23 08:43:51;;;;;;;32.65;16.83;;;;;;;13.76;66.54;100482.88;4945643;28;115194;-71
2022/12/23 08:46:18;;;;;;;31.23;15.95;;;;;;;13.76;66.53;100490.88;4947478;28;114700;-71
2022/12/23 08:48:45;;;;;;;33.03;16.88;;;;;;;13.79;66.58;100498.66;4939117;28;123820;-71
2022/12/23 08:51:18;;;;;;;34.28;16.45;;;;;;;13.80;66.50;100500.38;4941526;28;123916;-70
2022/12/23 08:53:46;;;;;;;35.70;16.60;;;;;;;13.81;66.46;100499.44;4944198;28;113751;-70
2022/12/23 08:56:19;;;;;;;33.45;16.48;;;;;;;13.82;66.45;100500.28;4942254;28;114579;-73
2022/12/23 08:58:49;;;;;;;40.60;17.13;;;;;;;13.81;66.39;100499.44;4939892;28;124765;-74
2022/12/23 09:01:18;;;;;;;34.83;17.33;;;;;;;13.80;66.49;100497.69;4939363;28;124588;-74
2022/12/23 09:03:46;;;;;;;39.40;17.58;;;;;;;13.80;66.51;100492.38;4944021;28;114309;-74
2022/12/23 09:06:19;;;;;;;39.83;17.77;;;;;;;13.78;66.49;100478.31;4943530;28;113526;-75
2022/12/23 09:08:54;;;;;;;35.50;17.40;;;;;;;13.78;66.40;100478.31;4939710;28;124291;-75
2022/12/23 09:11:24;;;;;;;43.67;19.52;;;;;;;13.79;66.47;100474.72;4943216;28;124124;-75
2022/12/23 09:13:51;;;;;;;38.90;18.40;;;;;;;13.79;66.81;100473.88;4941803;28;114720;-74
2022/12/23 09:16:19;;;;;;;36.83;17.58;;;;;;;13.79;66.58;100469.38;4943385;28;113700;-75
2022/12/23 09:18:46;;;;;;;42.35;18.50;;;;;;;13.81;66.44;100462.16;4942295;28;123443;-74
2022/12/23 09:21:16;;;;;;;40.60;18.27;;;;;;;13.80;66.60;100464.91;4938481;28;125277;-73
2022/12/23 09:23:44;;;;;;;38.00;18.55;;;;;;;13.79;66.47;100458.75;4925713;28;115854;-73
2022/12/23 09:26:21;;;;;;;37.75;18.08;;;;;;;13.79;66.58;100464.06;4944203;28;113978;-73
2022/12/23 09:28:49;;;;;;;38.17;16.92;;;;;;;13.80;66.72;100460.44;4942723;28;123882;-73
2022/12/23 09:31:17;;;;;;;37.85;17.50;;;;;;;13.80;66.44;100460.44;4936695;28;124804;-73
2022/12/23 09:33:49;;;;;;;34.40;17.13;;;;;;;13.81;66.71;100456.00;4933231;28;114888;-73
2022/12/23 09:36:17;;;;;;;35.17;16.58;;;;;;;13.83;66.70;100460.25;4932951;28;115498;-73
2022/12/23 09:38:44;;;;;;;39.47;16.55;;;;;;;13.82;66.48;100452.34;4944007;28;124601;-73
2022/12/23 09:41:26;;;;;;;34.83;16.50;;;;;;;13.82;66.56;100455.91;4945235;28;125048;-73
2022/12/23 09:44:18;;;;;;;36.70;16.13;;;;;;;13.81;66.61;100435.53;4948997;28;114923;-73
2022/12/23 09:46:52;;;;;;;34.70;16.50;;;;;;;13.81;66.63;100435.53;4960164;28;114336;-73
2022/12/23 09:49:21;;;;;;;31.70;15.90;;;;;;;13.81;66.60;100424.91;4935960;28;123783;-73
2022/12/23 09:51:51;;;;;;;34.67;15.15;;;;;;;13.81;66.51;100419.56;4944665;28;123826;-73
2022/12/23 09:54:21;;;;;;;31.88;15.60;;;;;;;13.81;66.51;100416.91;4948536;28;115597;-73
2022/12/23 09:57:11;;;;;;;31.10;15.73;;;;;;;13.82;66.46;100410.66;4950788;28;114869;-73
2022/12/23 09:59:53;;;;;;;30.27;15.10;;;;;;;13.81;66.58;100414.25;4941375;28;123994;-73
2022/12/23 10:02:38;;;;;;;32.97;14.68;;;;;;;13.80;66.53;100401.88;4939220;28;124597;-73
2022/12/23 10:05:20;;;;;;;34.67;14.50;;;;;;;13.81;66.54;100387.63;4949887;28;114045;-73
2022/12/23 10:07:56;;;;;;;27.77;12.88;;;;;;;13.80;66.35;100385.91;4956649;28;114835;-73
2022/12/23 10:10:31;;;;;;;25.25;12.45;;;;;;;13.81;66.61;100387.63;4945184;28;124144;-73
2022/12/23 10:13:02;;;;;;;30.03;13.00;;;;;;;13.82;66.48;100384.03;4945681;28;124498;-73
2022/12/23 10:15:37;;;;;;;32.80;13.02;;;;;;;13.82;66.53;100389.34;4936921;28;114333;-73
2022/12/23 10:18:14;;;;;;;17.58;8.18;;;;;;;13.82;66.42;100389.34;4934552;28;114425;-73
2022/12/23 10:20:49;;;;;;;18.23;8.85;;;;;;;13.82;66.40;100405.31;4943913;28;123793;-72
2022/12/23 10:23:28;;;;;;;23.95;8.90;;;;;;;13.83;66.57;100399.03;4944516;28;123849;-72
2022/12/23 10:25:56;;;;;;;17.80;8.60;;;;;;;13.82;66.38;100394.69;4947068;28;116121;-72
2022/12/23 10:28:23;;;;;;;26.45;11.68;;;;;;;13.83;66.51;100390.19;4946121;28;115034;-72
2022/12/23 10:31:04;;;;;;;27.65;11.27;;;;;;;13.81;66.50;100371.66;4933424;28;123881;-72
2022/12/23 10:34:03;;;;;;;23.45;11.23;;;;;;;13.80;66.40;100369.09;4940857;28;123614;-72
2022/12/23 10:36:41;;;;;;;23.00;10.77;;;;;;;13.79;66.38;100365.59;4929251;28;114136;-72
2022/12/23 10:39:40;;;;;;;23.70;11.45;;;;;;;13.80;66.30;100358.44;4947442;28;113835;-72
2022/12/23 10:42:17;;;;;;;25.02;10.88;;;;;;;13.79;66.38;100346.94;4945345;28;124757;-72
2022/12/23 10:45:32;;;;;;;23.02;10.68;;;;;;;13.79;66.52;100351.44;4946010;28;124226;-72
2022/12/23 10:48:17;;;;;;;24.88;11.13;;;;;;;13.78;66.52;100349.72;4944114;28;113011;-72
2022/12/23 10:50:50;;;;;;;20.85;9.88;;;;;;;13.76;66.42;100351.63;4947687;28;114136;-72
2022/12/23 10:53:47;;;;;;;21.42;10.60;;;;;;;13.74;66.52;100354.38;4936827;28;123560;-72
2022/12/23 10:56:14;;;;;;;23.13;11.60;;;;;;;13.74;66.63;100346.41;4945260;28;123774;-72
2022/12/23 10:58:45;;;;;;;21.27;10.55;;;;;;;13.74;66.56;100345.56;4942396;28;114513;-73
2022/12/23 11:01:16;;;;;;;23.58;10.80;;;;;;;13.73;66.57;100326.06;4939898;28;113566;-72
2022/12/23 11:03:55;;;;;;;19.73;10.75;;;;;;;13.72;66.46;100319.03;4941571;28;123666;-72
2022/12/23 11:06:23;;;;;;;22.20;10.30;;;;;;;13.74;66.47;100321.59;4934744;28;122376;-72
2022/12/23 11:08:50;;;;;;;21.98;10.40;;;;;;;13.73;66.35;100318.09;4943238;28;114967;-72
2022/12/23 11:11:17;;;;;;;20.98;9.68;;;;;;;13.73;66.47;100315.44;4944281;28;114973;-72
2022/12/23 11:13:46;;;;;;;21.13;10.20;;;;;;;13.72;66.59;100308.38;4941899;28;123832;-72
2022/12/23 11:16:16;;;;;;;19.60;9.40;;;;;;;13.73;66.46;100303.91;4953284;28;124299;-72
2022/12/23 11:19:04;;;;;;;20.48;10.20;;;;;;;13.71;66.30;100288.06;4941676;28;115348;-72
2022/12/23 11:21:32;;;;;;;19.35;9.60;;;;;;;13.72;66.53;100276.44;4941887;28;114211;-72
2022/12/23 11:24:18;;;;;;;20.35;10.20;;;;;;;13.72;66.49;100273.78;4949300;28;123844;-72
2022/12/23 11:26:48;;;;;;;21.13;10.27;;;;;;;13.73;66.32;100272.84;4942367;28;124507;-72
2022/12/23 11:29:24;;;;;;;18.58;8.95;;;;;;;13.73;66.43;100267.53;4939401;28;113422;-72
2022/12/23 11:31:51;;;;;;;20.88;9.13;;;;;;;13.75;66.34;100265.63;4948290;28;114757;-72
2022/12/23 11:34:21;;;;;;;18.58;8.80;;;;;;;13.75;66.36;100270.94;4934627;28;122969;-72
2022/12/23 11:36:57;;;;;;;16.60;9.38;;;;;;;13.75;66.34;100265.63;4940989;28;123897;-72
2022/12/23 11:39:35;;;;;;;19.65;8.43;;;;;;;13.75;66.41;100268.28;4934510;28;114231;-72
2022/12/23 11:42:16;;;;;;;17.15;8.48;;;;;;;13.76;66.41;100248.66;4941359;28;113648;-72
2022/12/23 11:44:50;;;;;;;14.88;7.70;;;;;;;13.77;66.33;100252.22;4943822;28;123980;-72
2022/12/23 11:47:21;;;;;;;16.77;8.32;;;;;;;13.77;66.25;100247.72;4948283;28;124941;-72